Time;durP1;ratioP1;P1;durP2;ratioP2;P2;SDS_P1;SDS_P2;PMS_P1;PMS_P2;Temp;Humidity;BMP_temperature;BMP_pressure;BME280_temperature;BME280_humidity;BME280_pressure;Samples;Min_cycle;Max_cycle;Signal;HPM_P1;HPM_P2
2022/08/06 00:01:08;;;;;;;4.55;1.65;;;15.10;99.90;;;;;;5076276;28;20481;-67
2022/08/06 00:03:34;;;;;;;3.25;1.70;;;15.20;99.90;;;;;;5076470;28;20041;-67
2022/08/06 00:06:00;;;;;;;6.97;1.65;;;15.10;99.90;;;;;;5078543;28;20468;-67
2022/08/06 00:08:25;;;;;;;4.72;1.55;;;15.10;99.90;;;;;;5079535;28;20532;-67
2022/08/06 00:10:51;;;;;;;4.35;1.63;;;15.10;99.90;;;;;;5077344;28;20049;-67
2022/08/06 00:13:18;;;;;;;4.55;1.85;;;15.00;99.90;;;;;;5074337;28;20041;-67
2022/08/06 00:15:44;;;;;;;6.82;1.80;;;15.00;99.90;;;;;;5076170;28;20047;-67
2022/08/06 00:18:10;;;;;;;3.38;1.50;;;14.90;99.90;;;;;;5076091;28;20040;-67
2022/08/06 00:20:36;;;;;;;6.57;1.77;;;15.00;99.90;;;;;;5075887;28;20532;-67
2022/08/06 00:23:01;;;;;;;8.15;2.10;;;14.90;99.90;;;;;;5074231;28;20047;-67
2022/08/06 00:25:27;;;;;;;8.85;1.88;;;14.80;99.90;;;;;;5076175;28;20040;-67
2022/08/06 00:27:53;;;;;;;6.55;1.70;;;14.80;99.90;;;;;;5076067;28;20040;-67
2022/08/06 00:30:19;;;;;;;7.00;2.05;;;14.70;99.90;;;;;;5075971;28;20393;-67
2022/08/06 00:32:44;;;;;;;2.35;1.65;;;14.70;99.90;;;;;;5075515;28;20102;-67
2022/08/06 00:35:10;;;;;;;4.25;1.70;;;14.60;99.90;;;;;;5074286;28;20678;-67
2022/08/06 00:37:36;;;;;;;4.20;1.90;;;14.50;99.90;;;;;;5075798;28;20037;-67
2022/08/06 00:40:02;;;;;;;4.55;2.55;;;14.50;99.90;;;;;;5075932;28;20063;-67
2022/08/06 00:42:27;;;;;;;8.52;1.95;;;14.50;99.90;;;;;;5075429;28;20083;-67
2022/08/06 00:44:53;;;;;;;3.60;1.77;;;14.50;99.90;;;;;;5074369;28;20075;-68
2022/08/06 00:47:19;;;;;;;6.55;1.65;;;14.50;99.90;;;;;;5073562;28;20045;-67
2022/08/06 00:49:45;;;;;;;4.75;1.60;;;14.50;99.90;;;;;;5072284;28;20040;-67
2022/08/06 00:52:10;;;;;;;11.43;2.20;;;14.40;99.90;;;;;;5071966;28;20041;-67
2022/08/06 00:54:36;;;;;;;5.22;1.80;;;14.40;99.90;;;;;;5071064;28;20044;-66
2022/08/06 00:57:05;;;;;;;3.47;1.80;;;14.30;99.90;;;;;;5072431;28;20033;-67
2022/08/06 00:59:31;;;;;;;7.00;1.67;;;14.30;99.90;;;;;;5070972;28;20041;-66
2022/08/06 01:01:56;;;;;;;5.38;2.30;;;14.30;99.90;;;;;;5070942;28;20050;-66
2022/08/06 01:04:22;;;;;;;2.28;1.40;;;14.20;99.90;;;;;;5070895;28;20051;-67
2022/08/06 01:06:48;;;;;;;3.17;1.65;;;13.90;99.90;;;;;;5072023;28;20142;-66
2022/08/06 01:09:13;;;;;;;3.78;1.77;;;13.80;99.90;;;;;;5072271;28;20041;-66
2022/08/06 01:11:39;;;;;;;6.28;1.90;;;13.80;99.90;;;;;;5072069;28;20591;-66
2022/08/06 01:14:06;;;;;;;7.97;3.67;;;13.80;99.90;;;;;;5072933;28;20131;-67
2022/08/06 01:16:45;;;;;;;6.85;3.45;;;13.80;99.90;;;;;;5073846;28;20493;-67
2022/08/06 01:19:26;;;;;;;6.80;2.50;;;13.80;99.90;;;;;;5071991;28;20563;-67
2022/08/06 01:22:13;;;;;;;5.70;2.00;;;13.90;99.90;;;;;;5071942;28;20119;-66
2022/08/06 01:25:08;;;;;;;5.18;1.92;;;13.80;99.90;;;;;;5070587;28;20055;-67
2022/08/06 01:28:07;;;;;;;4.82;2.13;;;13.80;99.90;;;;;;5070205;28;20098;-67
2022/08/06 01:30:39;;;;;;;5.57;2.08;;;13.80;99.90;;;;;;5068338;28;20052;-67
2022/08/06 01:33:09;;;;;;;;;;;13.70;99.90;;;;;;5071968;28;20123;-66
2022/08/06 01:35:38;;;;;;;4.95;1.77;;;13.50;99.90;;;;;;5071611;28;19921;-66
2022/08/06 01:38:08;;;;;;;4.15;1.65;;;13.40;99.90;;;;;;5071688;28;20052;-66
2022/08/06 01:40:37;;;;;;;2.63;2.05;;;13.50;99.90;;;;;;5071873;28;20045;-66
2022/08/06 01:43:07;;;;;;;3.30;1.60;;;13.50;99.90;;;;;;5069769;28;20044;-67
2022/08/06 01:45:35;;;;;;;6.40;2.25;;;13.50;99.90;;;;;;5070398;28;20044;-67
2022/08/06 01:48:08;;;;;;;4.70;2.00;;;13.60;99.90;;;;;;5070087;28;20051;-67
2022/08/06 01:50:38;;;;;;;6.10;2.50;;;13.60;99.90;;;;;;5071561;28;20342;-67
2022/08/06 01:53:05;;;;;;;3.55;2.20;;;13.70;99.90;;;;;;5069730;28;20048;-67
2022/08/06 01:55:36;;;;;;;5.88;2.10;;;13.70;99.90;;;;;;5071341;28;20508;-67
2022/08/06 01:58:04;;;;;;;3.25;2.05;;;13.70;99.90;;;;;;5070403;28;20543;-66
2022/08/06 02:00:32;;;;;;;5.72;2.53;;;13.70;99.90;;;;;;5070965;28;20040;-66
2022/08/06 02:03:07;;;;;;;5.43;2.45;;;13.60;99.90;;;;;;5069375;28;20055;-67
2022/08/06 02:05:34;;;;;;;3.53;2.28;;;13.60;99.90;;;;;;5070215;28;20132;-67
2022/08/06 02:08:01;;;;;;;3.83;2.28;;;13.50;99.90;;;;;;5071209;28;20056;-67
2022/08/06 02:10:30;;;;;;;3.88;2.22;;;13.60;99.90;;;;;;5071137;28;20090;-67
2022/08/06 02:12:56;;;;;;;3.85;2.03;;;13.50;99.90;;;;;;5069158;28;20062;-67
2022/08/06 02:15:27;;;;;;;4.82;2.42;;;13.50;99.90;;;;;;5069469;28;20066;-66
2022/08/06 02:17:57;;;;;;;3.65;2.35;;;13.50;99.90;;;;;;5069867;28;20338;-67
2022/08/06 02:20:27;;;;;;;3.78;2.40;;;13.50;99.90;;;;;;5071983;28;20198;-67
2022/08/06 02:22:55;;;;;;;5.10;2.13;;;13.50;99.90;;;;;;5073260;28;20048;-67
2022/08/06 02:25:21;;;;;;;6.05;2.65;;;13.50;99.90;;;;;;5072273;28;20067;-67
2022/08/06 02:27:51;;;;;;;3.35;2.00;;;13.30;99.90;;;;;;5069399;28;20105;-67
2022/08/06 02:30:17;;;;;;;4.68;2.08;;;13.30;99.90;;;;;;5071021;28;20413;-67
2022/08/06 02:32:44;;;;;;;5.38;2.40;;;13.30;99.90;;;;;;5068862;28;20473;-67
2022/08/06 02:35:10;;;;;;;2.47;2.22;;;13.30;99.90;;;;;;5069508;28;20389;-66
2022/08/06 02:37:44;;;;;;;5.03;2.60;;;13.30;99.90;;;;;;5070767;28;20044;-67
2022/08/06 02:40:19;;;;;;;5.28;2.83;;;13.30;99.90;;;;;;5071402;28;20040;-67
2022/08/06 02:43:08;;;;;;;6.47;2.38;;;13.30;99.90;;;;;;5068806;28;20047;-67
2022/08/06 02:45:42;;;;;;;4.18;2.83;;;13.20;99.90;;;;;;5070455;28;20044;-67
2022/08/06 02:48:27;;;;;;;2.60;1.80;;;13.30;99.90;;;;;;5070315;28;20076;-67
2022/08/06 02:50:55;;;;;;;2.65;2.17;;;13.00;99.90;;;;;;5069024;28;20446;-67
2022/08/06 02:53:26;;;;;;;2.65;2.00;;;12.90;99.90;;;;;;5068333;28;20048;-66
2022/08/06 02:55:56;;;;;;;5.38;2.17;;;12.80;99.90;;;;;;5070179;28;20037;-67
2022/08/06 02:58:33;;;;;;;4.22;2.25;;;12.90;99.90;;;;;;5069998;28;20040;-67
2022/08/06 03:01:02;;;;;;;4.18;2.00;;;13.00;99.90;;;;;;5068789;28;20052;-67
2022/08/06 03:03:31;;;;;;;2.72;2.00;;;12.90;99.90;;;;;;5069697;28;20074;-67
2022/08/06 03:05:58;;;;;;;4.53;2.20;;;12.90;99.90;;;;;;5070006;28;20036;-67
2022/08/06 03:08:26;;;;;;;3.33;2.20;;;13.00;99.90;;;;;;5068773;28;20063;-67
2022/08/06 03:10:55;;;;;;;5.05;2.60;;;12.90;99.90;;;;;;5051656;28;20113;-67
2022/08/06 03:13:22;;;;;;;2.85;1.90;;;12.90;99.90;;;;;;5068172;28;20057;-66
2022/08/06 03:15:49;;;;;;;2.38;2.05;;;12.80;99.90;;;;;;5069614;28;20037;-67
2022/08/06 03:18:16;;;;;;;3.25;1.98;;;12.70;99.90;;;;;;5068474;28;20044;-67
2022/08/06 03:20:43;;;;;;;3.78;1.90;;;12.70;99.90;;;;;;5069745;28;20107;-66
2022/08/06 03:23:11;;;;;;;4.32;2.30;;;12.80;99.90;;;;;;5069559;28;20040;-67
2022/08/06 03:25:39;;;;;;;2.65;2.00;;;12.80;99.90;;;;;;5069855;28;20666;-67
2022/08/06 03:28:06;;;;;;;3.33;1.80;;;12.70;99.90;;;;;;5069133;28;20041;-67
2022/08/06 03:30:32;;;;;;;2.75;2.13;;;12.70;99.90;;;;;;5054456;28;20046;-67
2022/08/06 03:33:01;;;;;;;4.57;2.33;;;12.70;99.90;;;;;;5069380;28;20461;-67
2022/08/06 03:35:26;;;;;;;2.67;2.25;;;12.60;99.90;;;;;;5069749;28;20040;-67
2022/08/06 03:37:54;;;;;;;5.05;2.00;;;12.60;99.90;;;;;;5069790;28;20052;-67
2022/08/06 03:40:21;;;;;;;2.13;1.92;;;12.40;99.90;;;;;;5051491;28;20040;-67
2022/08/06 03:42:46;;;;;;;2.47;2.25;;;12.30;99.90;;;;;;5067877;28;20500;-67
2022/08/06 03:45:12;;;;;;;2.30;2.10;;;12.30;99.90;;;;;;5069806;28;20209;-67
2022/08/06 03:47:44;;;;;;;4.82;2.25;;;12.20;99.90;;;;;;5068564;28;20135;-66
2022/08/06 03:50:12;;;;;;;3.87;2.00;;;12.20;99.90;;;;;;5068454;28;20040;-67
2022/08/06 03:52:41;;;;;;;3.95;1.75;;;12.30;99.90;;;;;;5067826;28;20098;-66
2022/08/06 03:55:12;;;;;;;3.17;1.98;;;12.30;99.90;;;;;;5069108;28;20067;-67
2022/08/06 03:57:46;;;;;;;2.67;1.90;;;12.20;99.90;;;;;;5066465;28;20068;-66
2022/08/06 04:00:14;;;;;;;3.97;2.00;;;12.10;99.90;;;;;;5067766;28;20528;-66
2022/08/06 04:02:44;;;;;;;2.42;2.20;;;11.90;99.90;;;;;;5049855;28;20049;-66
2022/08/06 04:05:15;;;;;;;2.75;2.33;;;11.90;99.90;;;;;;5069561;28;20125;-66
2022/08/06 04:07:41;;;;;;;3.20;2.42;;;12.10;99.90;;;;;;5068620;28;20401;-67
2022/08/06 04:10:08;;;;;;;4.93;2.38;;;12.10;99.90;;;;;;5069015;28;20071;-66
2022/08/06 04:12:34;;;;;;;2.30;2.10;;;12.20;99.90;;;;;;5067054;28;20056;-67
2022/08/06 04:15:00;;;;;;;2.25;1.90;;;12.20;99.90;;;;;;5069544;28;20105;-66
2022/08/06 04:17:27;;;;;;;2.15;2.00;;;12.10;99.90;;;;;;5067953;28;20062;-67
2022/08/06 04:19:54;;;;;;;3.75;1.92;;;11.90;99.90;;;;;;5069210;28;20040;-67
2022/08/06 04:22:20;;;;;;;2.50;2.30;;;11.80;99.90;;;;;;5067729;28;20138;-66
2022/08/06 04:24:47;;;;;;;2.72;2.17;;;11.80;99.90;;;;;;5073113;28;20040;-67
2022/08/06 04:27:14;;;;;;;2.83;2.55;;;11.80;99.90;;;;;;5071984;28;20049;-67
2022/08/06 04:29:41;;;;;;;2.35;2.20;;;11.90;99.90;;;;;;5072986;28;20098;-66
2022/08/06 04:32:08;;;;;;;2.13;1.90;;;12.00;99.90;;;;;;5071291;28;20063;-66
2022/08/06 04:34:35;;;;;;;2.28;1.92;;;12.10;99.90;;;;;;5072890;28;20401;-67
2022/08/06 04:37:01;;;;;;;2.20;2.00;;;12.20;99.90;;;;;;5073384;28;20068;-67
2022/08/06 04:39:27;;;;;;;4.05;2.10;;;12.20;99.90;;;;;;5073845;28;20102;-66
2022/08/06 04:41:54;;;;;;;2.20;2.00;;;12.20;99.90;;;;;;5071435;28;20071;-67
2022/08/06 04:44:20;;;;;;;2.88;2.22;;;12.20;99.90;;;;;;5072288;28;20041;-66
2022/08/06 04:46:49;;;;;;;3.88;2.03;;;12.30;99.90;;;;;;5072736;28;20033;-66
2022/08/06 04:49:16;;;;;;;2.15;2.03;;;12.30;99.90;;;;;;5070820;28;20162;-67
2022/08/06 04:51:48;;;;;;;2.38;2.17;;;12.30;99.90;;;;;;5054334;28;20040;-66
2022/08/06 04:54:15;;;;;;;3.28;2.40;;;12.40;99.90;;;;;;5070876;28;20041;-66
2022/08/06 04:56:42;;;;;;;2.50;2.00;;;12.20;99.90;;;;;;5071096;28;20045;-66
2022/08/06 04:59:08;;;;;;;2.38;2.17;;;12.20;99.90;;;;;;5070998;28;20052;-66
2022/08/06 05:01:34;;;;;;;3.63;2.75;;;12.20;99.90;;;;;;5072303;28;20036;-66
2022/08/06 05:03:59;;;;;;;3.15;2.15;;;12.10;99.90;;;;;;5071954;28;20036;-66
2022/08/06 05:06:59;;;;;;;4.28;2.22;;;12.30;99.90;;;;;;5070823;28;20041;-66
2022/08/06 05:09:26;;;;;;;3.22;2.20;;;12.30;99.90;;;;;;5064897;28;20121;-66
2022/08/06 05:12:03;;;;;;;8.55;3.42;;;12.60;99.90;;;;;;5072117;28;20037;-66
2022/08/06 05:14:47;;;;;;;6.82;3.83;;;13.00;99.90;;;;;;5072890;28;20037;-66
2022/08/06 05:17:15;;;;;;;4.95;4.32;;;13.20;99.90;;;;;;5073882;28;20032;-66
2022/08/06 05:19:53;;;;;;;5.47;3.88;;;13.50;99.90;;;;;;5070574;28;20044;-66
2022/08/06 05:22:21;;;;;;;6.05;4.30;;;13.70;99.90;;;;;;5070312;28;20094;-66
2022/08/06 05:24:48;;;;;;;6.35;4.00;;;13.80;99.90;;;;;;5070621;28;20094;-66
2022/08/06 05:27:15;;;;;;;6.40;3.70;;;14.00;99.90;;;;;;5070392;28;20044;-66
2022/08/06 05:29:41;;;;;;;7.50;4.45;;;14.20;99.90;;;;;;5070322;28;20090;-66
2022/08/06 05:32:07;;;;;;;12.55;4.18;;;14.30;99.90;;;;;;5071605;28;20047;-66
2022/08/06 05:34:33;;;;;;;5.97;4.03;;;14.50;99.90;;;;;;5070866;28;20551;-66
2022/08/06 05:36:58;;;;;;;5.05;3.28;;;14.70;99.90;;;;;;5071840;28;20040;-66
2022/08/06 05:39:24;;;;;;;4.70;3.95;;;14.80;99.90;;;;;;5070174;28;20123;-66
2022/08/06 05:41:51;;;;;;;5.28;4.10;;;15.00;99.90;;;;;;5070138;28;20051;-67
2022/08/06 05:44:16;;;;;;;6.72;3.78;;;15.10;99.90;;;;;;5072734;28;20036;-67
2022/08/06 05:46:52;;;;;;;4.65;3.20;;;15.20;99.90;;;;;;5073268;28;20040;-66
2022/08/06 05:49:25;;;;;;;8.38;3.95;;;15.30;99.90;;;;;;5071553;28;20032;-66
2022/08/06 05:52:12;;;;;;;5.05;3.72;;;15.40;99.90;;;;;;5069968;28;20059;-66
2022/08/06 05:54:56;;;;;;;3.85;3.17;;;15.50;99.90;;;;;;5071741;28;20036;-66
2022/08/06 05:57:48;;;;;;;7.25;4.00;;;15.60;99.90;;;;;;5070028;28;20044;-66
2022/08/06 06:00:18;;;;;;;7.35;4.45;;;15.70;99.90;;;;;;5068531;28;20052;-66
2022/08/06 06:02:46;;;;;;;5.03;3.42;;;15.80;99.90;;;;;;5071306;28;20097;-66
2022/08/06 06:05:13;;;;;;;4.95;4.22;;;15.90;99.90;;;;;;5071375;28;20032;-66
2022/08/06 06:07:39;;;;;;;4.88;3.70;;;15.90;99.90;;;;;;5071358;28;20507;-66
2022/08/06 06:10:06;;;;;;;3.78;3.40;;;16.00;99.90;;;;;;5071251;28;20043;-66
2022/08/06 06:12:34;;;;;;;10.52;3.50;;;16.10;99.90;;;;;;5070694;28;20040;-66
2022/08/06 06:15:02;;;;;;;3.78;3.28;;;16.20;99.90;;;;;;5069699;28;20044;-66
2022/08/06 06:17:43;;;;;;;6.25;3.13;;;16.30;99.90;;;;;;5071245;28;20451;-66
2022/08/06 06:20:12;;;;;;;4.97;2.90;;;16.40;99.90;;;;;;5069499;28;20032;-66
2022/08/06 06:22:41;;;;;;;6.32;3.13;;;16.60;99.90;;;;;;5069127;28;20048;-66
2022/08/06 06:25:25;;;;;;;8.80;2.55;;;16.60;99.90;;;;;;5070919;28;20068;-66
2022/08/06 06:28:01;;;;;;;7.82;3.20;;;16.80;99.90;;;;;;5070877;28;20047;-66
2022/08/06 06:30:41;;;;;;;6.63;3.67;;;16.80;99.90;;;;;;5052862;28;20053;-67
2022/08/06 06:33:32;;;;;;;6.38;3.60;;;16.90;99.90;;;;;;5071840;28;20516;-67
2022/08/06 06:36:04;;;;;;;6.75;3.60;;;17.00;99.90;;;;;;5072586;28;20044;-66
2022/08/06 06:38:53;;;;;;;6.93;3.55;;;17.00;99.90;;;;;;5069256;28;20047;-66
2022/08/06 06:41:45;;;;;;;10.68;3.88;;;17.00;99.90;;;;;;5070399;28;20047;-67
2022/08/06 06:44:29;;;;;;;6.00;3.60;;;17.10;99.90;;;;;;5068564;28;20047;-66
2022/08/06 06:47:02;;;;;;;5.38;2.50;;;17.20;99.90;;;;;;5068203;28;20739;-66
2022/08/06 06:49:51;;;;;;;4.80;2.33;;;17.30;99.90;;;;;;5070485;28;20045;-66
2022/08/06 06:52:26;;;;;;;5.30;2.22;;;17.40;99.90;;;;;;5070935;28;20045;-67
2022/08/06 06:55:14;;;;;;;3.65;1.42;;;17.50;99.90;;;;;;5072543;28;20108;-66
2022/08/06 06:57:44;;;;;;;4.28;1.10;;;17.60;99.90;;;;;;5070328;28;20094;-66
2022/08/06 07:00:12;;;;;;;2.20;0.82;;;17.80;99.90;;;;;;5068914;28;20124;-66
2022/08/06 07:02:41;;;;;;;1.48;0.80;;;17.70;99.90;;;;;;5069666;28;20075;-67
2022/08/06 07:05:09;;;;;;;2.20;0.65;;;17.80;99.90;;;;;;5068607;28;20095;-66
2022/08/06 07:07:39;;;;;;;0.73;0.60;;;17.90;99.90;;;;;;5068696;28;20148;-66
2022/08/06 07:10:08;;;;;;;2.03;0.80;;;18.00;99.90;;;;;;5069992;28;20108;-66
2022/08/06 07:12:34;;;;;;;3.20;0.90;;;18.00;99.90;;;;;;5068164;28;20053;-66
2022/08/06 07:15:06;;;;;;;1.33;0.70;;;18.00;99.90;;;;;;5068465;28;20143;-66
2022/08/06 07:17:35;;;;;;;4.05;1.00;;;18.10;99.90;;;;;;5069696;28;20523;-66
2022/08/06 07:20:07;;;;;;;1.20;0.70;;;18.20;99.90;;;;;;5069771;28;20512;-71
2022/08/06 07:22:34;;;;;;;6.30;1.23;;;18.30;99.90;;;;;;5069837;28;20405;-67
2022/08/06 07:25:03;;;;;;;4.35;1.00;;;18.30;99.90;;;;;;5070179;28;20127;-67
2022/08/06 07:27:37;;;;;;;1.20;0.50;;;18.50;99.90;;;;;;5070075;28;20055;-67
2022/08/06 07:30:03;;;;;;;1.42;0.70;;;18.40;99.90;;;;;;5070222;28;20040;-67
2022/08/06 07:32:30;;;;;;;5.45;0.40;;;18.60;99.90;;;;;;5069748;28;20497;-67
2022/08/06 07:34:56;;;;;;;2.17;0.70;;;18.50;99.90;;;;;;5068966;28;20151;-68
2022/08/06 07:37:25;;;;;;;1.75;0.40;;;18.50;99.90;;;;;;5068737;28;20036;-68
2022/08/06 07:39:53;;;;;;;0.65;0.40;;;18.70;99.90;;;;;;5068965;28;20485;-67
2022/08/06 07:42:23;;;;;;;0.65;0.43;;;18.70;99.90;;;;;;5068548;28;20052;-67
2022/08/06 07:44:52;;;;;;;3.53;0.60;;;18.70;99.90;;;;;;5051970;28;20040;-67
2022/08/06 07:47:21;;;;;;;2.25;0.52;;;18.80;99.90;;;;;;5070140;28;20046;-68
2022/08/06 07:49:51;;;;;;;3.50;0.77;;;18.80;99.90;;;;;;5068944;28;20072;-68
2022/08/06 07:52:18;;;;;;;2.40;0.52;;;18.80;99.90;;;;;;5068512;28;20044;-68
2022/08/06 07:54:45;;;;;;;2.63;0.60;;;18.90;99.90;;;;;;5069877;28;20116;-67
2022/08/06 07:57:12;;;;;;;0.73;0.47;;;19.00;99.90;;;;;;5070295;28;20048;-67
2022/08/06 07:59:39;;;;;;;1.15;0.60;;;19.00;99.90;;;;;;5077755;28;20040;-67
2022/08/06 08:02:05;;;;;;;2.20;0.63;;;19.00;99.90;;;;;;5079102;28;20040;-68
2022/08/06 08:07:16;;;;;;;5.18;0.82;;;19.10;99.90;;;;;;5072486;28;20516;-68
2022/08/06 08:09:43;;;;;;;2.55;0.60;;;19.10;99.90;;;;;;5073761;28;20572;-68
2022/08/06 08:12:15;;;;;;;2.53;0.60;;;19.20;99.90;;;;;;5073622;28;20497;-67
2022/08/06 08:14:43;;;;;;;2.05;0.50;;;19.30;99.90;;;;;;5072499;28;20497;-68
2022/08/06 08:17:09;;;;;;;3.15;0.50;;;19.30;99.90;;;;;;5072330;28;20040;-68
2022/08/06 08:19:35;;;;;;;2.60;0.47;;;19.40;99.90;;;;;;5073636;28;20539;-68
2022/08/06 08:22:20;;;;;;;4.18;1.05;;;19.50;99.90;;;;;;5073575;28;20465;-68
2022/08/06 08:24:47;;;;;;;3.00;0.80;;;19.60;99.90;;;;;;5073778;28;20095;-68
2022/08/06 08:27:14;;;;;;;3.78;0.50;;;19.50;99.90;;;;;;5072308;28;20040;-68
2022/08/06 08:29:41;;;;;;;4.35;0.70;;;19.40;99.90;;;;;;5072345;28;20496;-68
2022/08/06 08:32:08;;;;;;;2.08;0.52;;;19.50;99.90;;;;;;5073318;28;20050;-68
2022/08/06 08:34:38;;;;;;;1.00;0.47;;;19.60;99.90;;;;;;5073143;28;20032;-68
2022/08/06 08:37:04;;;;;;;1.00;0.50;;;19.60;99.90;;;;;;5073461;28;20441;-68
2022/08/06 08:39:30;;;;;;;4.18;0.60;;;19.70;99.90;;;;;;5073403;28;20064;-67
2022/08/06 08:42:10;;;;;;;1.27;0.60;;;19.70;99.90;;;;;;5074057;28;20045;-70
2022/08/06 08:44:38;;;;;;;2.85;0.52;;;19.80;99.90;;;;;;5073280;28;20076;-72
2022/08/06 08:47:05;;;;;;;2.90;0.68;;;19.90;99.90;;;;;;5072481;28;20433;-71
2022/08/06 08:49:46;;;;;;;2.78;0.45;;;20.00;99.90;;;;;;5071931;28;20048;-70
2022/08/06 08:52:23;;;;;;;3.17;0.80;;;20.10;99.90;;;;;;5069116;28;20048;-70
2022/08/06 08:54:51;;;;;;;1.23;0.52;;;20.00;99.90;;;;;;5072059;28;20408;-70
2022/08/06 08:57:18;;;;;;;2.28;0.70;;;20.20;99.90;;;;;;5073364;28;20032;-70
2022/08/06 08:59:44;;;;;;;1.80;0.52;;;20.40;99.90;;;;;;5073660;28;20048;-71
2022/08/06 09:02:12;;;;;;;3.80;0.50;;;20.20;99.90;;;;;;5071527;28;20048;-71
2022/08/06 09:04:39;;;;;;;1.27;0.68;;;20.40;99.90;;;;;;5055567;28;20044;-70
2022/08/06 09:07:07;;;;;;;4.22;0.65;;;20.50;99.90;;;;;;5072361;28;20048;-70
2022/08/06 09:09:34;;;;;;;1.23;0.55;;;20.50;99.90;;;;;;5062203;28;20047;-71
2022/08/06 09:12:01;;;;;;;1.40;0.68;;;20.70;99.90;;;;;;5074497;28;20121;-71
2022/08/06 09:14:26;;;;;;;2.65;0.70;;;20.70;99.90;;;;;;5071063;28;20127;-70
2022/08/06 09:16:52;;;;;;;2.97;0.70;;;20.80;99.90;;;;;;5071329;28;20120;-70
2022/08/06 09:19:18;;;;;;;3.80;0.60;;;20.70;99.90;;;;;;5054670;28;20070;-71
2022/08/06 09:21:44;;;;;;;2.65;0.70;;;20.70;99.90;;;;;;5071457;28;20076;-71
2022/08/06 09:24:10;;;;;;;2.47;0.57;;;20.70;99.90;;;;;;5054251;28;20098;-72
2022/08/06 09:26:36;;;;;;;3.35;0.80;;;20.70;99.90;;;;;;5054472;28;20044;-69
2022/08/06 09:29:14;;;;;;;4.20;0.70;;;20.70;99.90;;;;;;5071115;28;20120;-68
2022/08/06 09:31:40;;;;;;;1.10;0.50;;;20.50;99.90;;;;;;5070889;28;20044;-68
2022/08/06 09:34:06;;;;;;;2.38;0.77;;;20.60;99.90;;;;;;5072009;28;20032;-68
2022/08/06 09:36:43;;;;;;;7.15;0.82;;;20.70;99.90;;;;;;5071693;28;20404;-68
2022/08/06 09:39:09;;;;;;;2.33;0.60;;;20.80;99.90;;;;;;5054639;28;20120;-68
2022/08/06 09:41:45;;;;;;;3.45;0.65;;;20.80;99.90;;;;;;5052199;28;20044;-69
2022/08/06 09:44:11;;;;;;;2.72;0.90;;;20.80;99.90;;;;;;5051803;28;20416;-68
2022/08/06 09:46:43;;;;;;;2.38;0.75;;;20.70;99.90;;;;;;5065625;28;20488;-69
2022/08/06 09:49:10;;;;;;;5.57;0.80;;;20.80;99.90;;;;;;5070720;28;20050;-69
2022/08/06 09:51:37;;;;;;;4.40;0.85;;;20.80;99.90;;;;;;5070445;28;20048;-69
2022/08/06 09:54:05;;;;;;;4.50;0.90;;;20.90;99.90;;;;;;5069514;28;20075;-69
2022/08/06 09:56:31;;;;;;;3.95;1.52;;;21.10;99.90;;;;;;5069326;28;20102;-68
2022/08/06 09:59:02;;;;;;;3.50;1.38;;;21.20;99.90;;;;;;5071876;28;20106;-69
2022/08/06 10:01:28;;;;;;;4.93;1.50;;;21.20;99.80;;;;;;5070870;28;20128;-69
2022/08/06 10:03:56;;;;;;;8.13;1.60;;;21.20;99.90;;;;;;5053601;28;20048;-69
2022/08/06 10:06:21;;;;;;;5.38;1.17;;;21.20;99.90;;;;;;5070447;28;20052;-69
2022/08/06 10:08:50;;;;;;;2.08;1.30;;;21.20;99.90;;;;;;5070439;28;20048;-69
2022/08/06 10:11:32;;;;;;;2.53;1.15;;;20.90;99.20;;;;;;5071980;28;20517;-69
2022/08/06 10:13:58;;;;;;;4.60;1.27;;;21.20;99.80;;;;;;5080401;28;20075;-70
2022/08/06 10:16:27;;;;;;;3.50;1.30;;;21.30;99.90;;;;;;5090027;28;20108;-71
2022/08/06 10:18:53;;;;;;;3.00;1.30;;;21.50;99.90;;;;;;5071894;28;20037;-69
2022/08/06 10:21:25;;;;;;;2.47;1.35;;;21.70;99.90;;;;;;5071176;28;20068;-69
2022/08/06 10:23:54;;;;;;;2.55;1.65;;;21.80;99.10;;;;;;5071130;28;20097;-66
2022/08/06 10:26:29;;;;;;;3.70;1.50;;;21.80;97.90;;;;;;5070811;28;20037;-69
2022/08/06 10:29:00;;;;;;;2.95;1.67;;;21.80;96.40;;;;;;5070942;28;20040;-69
2022/08/06 10:31:26;;;;;;;2.70;1.60;;;21.80;98.20;;;;;;5071490;28;20032;-68
2022/08/06 10:34:02;;;;;;;5.28;1.50;;;22.00;98.20;;;;;;5069000;28;20041;-70
2022/08/06 10:36:53;;;;;;;2.30;1.55;;;22.00;97.50;;;;;;5069691;28;20075;-68
2022/08/06 10:39:25;;;;;;;3.30;1.60;;;22.10;95.50;;;;;;5069528;28;20072;-67
2022/08/06 10:41:53;;;;;;;3.60;1.70;;;22.20;97.40;;;;;;5069509;28;20090;-67
2022/08/06 10:44:19;;;;;;;3.28;1.60;;;22.20;97.40;;;;;;5069243;28;20147;-68
2022/08/06 10:46:45;;;;;;;2.67;1.63;;;22.20;97.50;;;;;;5070630;28;20040;-69
2022/08/06 10:49:14;;;;;;;4.82;1.70;;;22.40;97.40;;;;;;5053309;28;20056;-69
2022/08/06 10:51:41;;;;;;;3.40;1.60;;;22.40;97.20;;;;;;5069715;28;20052;-68
2022/08/06 10:54:07;;;;;;;3.20;1.75;;;22.40;97.50;;;;;;5069193;28;20041;-69
2022/08/06 10:56:33;;;;;;;2.20;1.40;;;22.40;96.30;;;;;;5069572;28;20132;-69
2022/08/06 10:58:59;;;;;;;4.43;1.90;;;22.60;96.50;;;;;;5071084;28;20048;-69
2022/08/06 11:01:51;;;;;;;1.80;1.42;;;22.60;95.80;;;;;;5070798;28;20083;-68
2022/08/06 11:04:43;;;;;;;5.57;1.53;;;22.50;95.40;;;;;;5069141;28;20119;-68
2022/08/06 11:07:29;;;;;;;3.05;1.90;;;22.10;94.40;;;;;;5063496;28;20094;-69
2022/08/06 11:10:19;;;;;;;2.30;1.60;;;22.00;94.60;;;;;;5071043;28;20051;-69
2022/08/06 11:12:45;;;;;;;5.03;2.10;;;22.00;94.90;;;;;;5070451;28;20413;-69
2022/08/06 11:15:11;;;;;;;6.65;2.03;;;21.90;95.90;;;;;;5069566;28;20037;-68
2022/08/06 11:18:02;;;;;;;8.32;1.85;;;22.00;96.30;;;;;;5071061;28;20249;-69
2022/08/06 11:20:33;;;;;;;4.03;2.05;;;22.00;95.50;;;;;;5071303;28;20049;-68
2022/08/06 11:23:05;;;;;;;5.22;1.88;;;22.10;96.40;;;;;;5074824;28;20187;-69
2022/08/06 11:25:45;;;;;;;3.17;1.70;;;22.20;96.40;;;;;;5073898;28;20059;-69
2022/08/06 11:28:13;;;;;;;3.88;1.88;;;22.10;96.00;;;;;;5052971;28;20353;-69
2022/08/06 11:30:44;;;;;;;7.28;1.80;;;22.00;94.90;;;;;;5070993;28;20043;-69
2022/08/06 11:33:11;;;;;;;2.75;1.70;;;21.90;96.30;;;;;;5070018;28;20040;-69
2022/08/06 11:35:36;;;;;;;4.00;1.95;;;21.60;95.90;;;;;;5069696;28;20071;-69
2022/08/06 11:38:08;;;;;;;6.50;2.10;;;21.70;96.50;;;;;;5069642;28;20049;-68
2022/08/06 11:40:52;;;;;;;6.13;1.63;;;21.50;96.70;;;;;;5071160;28;20439;-68
2022/08/06 11:43:46;;;;;;;2.28;1.48;;;21.50;96.50;;;;;;5070385;28;20040;-68
2022/08/06 11:46:30;;;;;;;3.97;1.50;;;21.60;96.70;;;;;;5069308;28;20056;-68
2022/08/06 11:48:59;;;;;;;4.05;1.40;;;21.60;97.20;;;;;;5070772;28;20045;-69
2022/08/06 11:51:51;;;;;;;4.35;1.40;;;21.60;97.50;;;;;;5070574;28;20448;-69
2022/08/06 11:54:28;;;;;;;2.50;1.15;;;21.50;97.80;;;;;;5070135;28;20049;-69
2022/08/06 11:57:09;;;;;;;4.55;1.67;;;21.60;98.10;;;;;;5070572;28;20040;-69
2022/08/06 11:59:37;;;;;;;3.65;1.40;;;21.40;98.00;;;;;;5070563;28;20076;-69
2022/08/06 12:02:08;;;;;;;3.75;1.42;;;21.40;98.50;;;;;;5070135;28;20040;-69
2022/08/06 12:04:39;;;;;;;4.75;1.60;;;21.30;98.10;;;;;;5070142;28;20055;-69
2022/08/06 12:07:13;;;;;;;4.87;1.57;;;21.20;98.60;;;;;;5070334;28;20040;-69
2022/08/06 12:09:39;;;;;;;3.20;1.42;;;21.30;98.80;;;;;;5069079;28;20060;-68
2022/08/06 12:12:23;;;;;;;2.63;1.45;;;21.30;98.70;;;;;;5070332;28;20131;-68
2022/08/06 12:14:49;;;;;;;4.22;1.30;;;21.20;98.50;;;;;;5063430;28;20041;-69
2022/08/06 12:17:15;;;;;;;3.83;1.27;;;21.20;98.70;;;;;;5068148;28;20050;-69
2022/08/06 12:19:50;;;;;;;4.60;1.38;;;21.00;98.50;;;;;;5070263;28;20087;-68
2022/08/06 12:22:18;;;;;;;3.30;1.50;;;21.10;98.60;;;;;;5068534;28;20141;-69
2022/08/06 12:24:45;;;;;;;3.47;1.65;;;20.90;98.10;;;;;;5070077;28;20079;-68
2022/08/06 12:27:12;;;;;;;4.82;1.42;;;21.20;98.60;;;;;;5068873;28;20140;-68
2022/08/06 12:29:39;;;;;;;9.55;1.90;;;21.30;98.60;;;;;;5078666;28;20071;-68
2022/08/06 12:32:32;;;;;;;2.50;1.52;;;21.50;98.20;;;;;;5080743;28;20096;-69
2022/08/06 12:35:12;;;;;;;4.25;1.50;;;21.60;97.70;;;;;;5070672;28;20047;-68
2022/08/06 12:37:44;;;;;;;3.75;1.45;;;21.60;97.10;;;;;;5070150;28;20044;-68
2022/08/06 12:40:27;;;;;;;2.38;1.30;;;21.70;96.70;;;;;;5069922;28;20040;-69
2022/08/06 12:43:08;;;;;;;5.65;1.90;;;21.60;96.70;;;;;;5068529;28;20408;-69
2022/08/06 12:45:34;;;;;;;3.53;1.48;;;21.80;96.90;;;;;;5074162;28;20052;-69
2022/08/06 12:48:08;;;;;;;3.60;1.45;;;21.90;96.80;;;;;;5074103;28;20040;-69
2022/08/06 12:50:36;;;;;;;4.50;1.40;;;21.90;96.70;;;;;;5073294;28;20062;-69
2022/08/06 12:53:12;;;;;;;6.45;1.45;;;21.80;96.00;;;;;;5072808;28;20493;-67
2022/08/06 12:55:45;;;;;;;2.13;1.40;;;21.70;95.40;;;;;;5072141;28;20414;-68
2022/08/06 12:58:13;;;;;;;1.63;1.40;;;21.70;95.20;;;;;;5055722;28;20071;-69
2022/08/06 13:00:40;;;;;;;5.88;1.40;;;21.80;96.20;;;;;;5072666;28;20048;-69
2022/08/06 13:03:07;;;;;;;4.05;1.45;;;21.80;95.90;;;;;;5073861;28;20104;-69
2022/08/06 13:05:33;;;;;;;3.58;1.55;;;21.80;95.70;;;;;;5073034;28;20048;-69
2022/08/06 13:08:00;;;;;;;4.95;1.73;;;21.80;95.70;;;;;;5056648;28;20070;-69